Time;durP1;ratioP1;P1;durP2;ratioP2;P2;SDS_P1;SDS_P2;PMS_P1;PMS_P2;Temp;Humidity;BMP_temperature;BMP_pressure;BME280_temperature;BME280_humidity;BME280_pressure;Samples;Min_cycle;Max_cycle;Signal;HPM_P1;HPM_P2
2024/01/18 00:02:29;;;;;;;31.33;16.43;;;-2.90;99.90;;;;;;4881967;29;20135;-91
2024/01/18 00:08:51;;;;;;;31.27;16.67;;;-3.70;99.90;;;;;;4881130;29;20052;-91
2024/01/18 00:11:17;;;;;;;31.97;16.97;;;-1.80;99.90;;;;;;4881427;29;20059;-90
2024/01/18 00:13:51;;;;;;;28.80;16.43;;;-2.70;99.90;;;;;;4884876;29;20052;-91
2024/01/18 00:16:20;;;;;;;38.13;19.13;;;-2.60;99.90;;;;;;4884918;29;20055;-90
2024/01/18 00:18:54;;;;;;;48.40;24.67;;;-1.80;99.90;;;;;;4880922;29;20406;-91
2024/01/18 00:21:22;;;;;;;;;;;-2.90;99.90;;;;;;4897790;29;20064;-91
2024/01/18 00:24:06;;;;;;;32.90;18.20;;;-3.10;99.90;;;;;;4880794;29;20231;-91
2024/01/18 00:26:35;;;;;;;49.70;25.13;;;-0.70;99.90;;;;;;4928667;23;20408;-90
2024/01/18 00:29:30;;;;;;;90.00;38.43;;;-1.10;99.90;;;;;;4918751;29;20051;-90
2024/01/18 00:32:16;;;;;;;90.07;40.37;;;-3.10;99.90;;;;;;4918572;29;20051;-90
2024/01/18 00:35:17;;;;;;;34.95;20.05;;;-2.20;99.90;;;;;;4919378;29;20115;-91
2024/01/18 00:37:55;;;;;;;45.60;23.97;;;-2.30;99.90;;;;;;4934249;23;20051;-90
2024/01/18 00:40:33;;;;;;;48.53;26.63;;;-3.00;99.90;;;;;;4919877;29;20115;-90
2024/01/18 00:42:58;;;;;;;31.00;17.03;;;-2.90;99.90;;;;;;4920291;29;20035;-90
2024/01/18 00:45:30;;;;;;;31.27;17.27;;;-3.00;99.90;;;;;;4919599;29;20507;-90
2024/01/18 00:48:14;;;;;;;29.23;16.53;;;-3.00;99.90;;;;;;4922546;29;20048;-90
2024/01/18 00:50:43;;;;;;;29.10;16.02;;;-2.90;99.90;;;;;;4920219;29;20091;-90
2024/01/18 00:56:22;;;;;;;31.60;16.77;;;-2.70;99.90;;;;;;4915172;29;20059;-91
2024/01/18 00:59:09;;;;;;;30.50;15.83;;;-2.90;99.90;;;;;;4899321;29;20509;-91
2024/01/18 01:01:43;;;;;;;30.73;15.20;;;-0.80;99.90;;;;;;4898399;29;20178;-91
2024/01/18 01:04:09;;;;;;;35.90;20.37;;;-2.60;99.90;;;;;;4898991;29;20119;-91
2024/01/18 01:06:35;;;;;;;40.93;22.50;;;-2.80;99.90;;;;;;4899261;29;20493;-90
2024/01/18 01:09:06;;;;;;;35.93;19.60;;;-1.50;99.90;;;;;;4897316;29;20055;-91
2024/01/18 01:11:31;;;;;;;31.57;17.67;;;-2.50;99.90;;;;;;4915069;29;20056;-90
2024/01/18 01:13:57;;;;;;;28.73;16.50;;;-3.00;99.90;;;;;;4924492;29;20055;-90
2024/01/18 01:16:29;;;;;;;41.57;23.30;;;-2.50;99.90;;;;;;4918933;29;20559;-91
2024/01/18 01:18:55;;;;;;;33.57;18.33;;;-2.80;99.90;;;;;;4918855;29;20087;-91
2024/01/18 01:21:20;;;;;;;33.40;16.70;;;-1.40;99.90;;;;;;4919276;29;20090;-91
2024/01/18 01:23:48;;;;;;;29.33;16.97;;;-3.20;99.90;;;;;;4924319;29;20051;-90
2024/01/18 01:26:33;;;;;;;29.73;14.80;;;-2.50;99.90;;;;;;4920209;29;20057;-91
2024/01/18 01:29:02;;;;;;;27.43;15.07;;;-3.70;99.90;;;;;;4917496;29;20567;-90
2024/01/18 01:31:34;;;;;;;28.67;14.63;;;-2.80;99.90;;;;;;4918343;29;20515;-90
2024/01/18 01:34:02;;;;;;;28.00;14.03;;;-2.00;99.90;;;;;;4917866;29;20090;-90
2024/01/18 01:36:33;;;;;;;26.23;13.83;;;-1.50;99.90;;;;;;4921892;29;20051;-90
2024/01/18 01:38:59;;;;;;;27.73;13.93;;;-1.40;99.90;;;;;;4924318;29;20105;-90
2024/01/18 01:41:25;;;;;;;26.93;14.73;;;-3.20;99.90;;;;;;4924787;29;20507;-90
2024/01/18 01:44:01;;;;;;;26.43;14.20;;;-3.30;99.90;;;;;;4924373;29;20056;-90
2024/01/18 01:46:36;;;;;;;28.70;13.57;;;-3.30;99.90;;;;;;4924827;29;20087;-90
2024/01/18 01:49:04;;;;;;;26.33;13.90;;;-3.50;99.90;;;;;;5165508;23;20490;-89
2024/01/18 01:51:49;;;;;;;23.20;13.50;;;-3.10;99.90;;;;;;4923959;29;20055;-90
2024/01/18 01:54:21;;;;;;;24.57;13.90;;;-3.10;99.90;;;;;;4924149;29;20055;-90
2024/01/18 01:56:53;;;;;;;24.50;13.30;;;-3.10;99.90;;;;;;4924412;29;20168;-89
2024/01/18 01:59:19;;;;;;;25.27;13.00;;;-2.10;99.90;;;;;;4925027;29;20126;-90
2024/01/18 02:01:54;;;;;;;25.13;12.80;;;-3.00;99.90;;;;;;4925095;29;20534;-90
2024/01/18 02:04:20;;;;;;;22.97;12.17;;;-1.40;99.90;;;;;;4923932;29;20075;-90
2024/01/18 02:06:59;;;;;;;23.43;12.63;;;-3.30;99.90;;;;;;4924822;29;20047;-90
2024/01/18 02:09:43;;;;;;;27.17;12.33;;;-0.80;99.90;;;;;;4924881;29;20504;-90
2024/01/18 02:12:26;;;;;;;24.47;13.00;;;-2.90;99.90;;;;;;4923546;29;20380;-90
2024/01/18 02:14:57;;;;;;;22.40;11.47;;;-2.10;99.90;;;;;;4924506;29;20447;-90
2024/01/18 02:17:24;;;;;;;25.30;12.13;;;-2.10;99.90;;;;;;4924950;29;20054;-90
2024/01/18 02:19:56;;;;;;;23.33;11.43;;;-3.00;99.90;;;;;;4924108;29;20134;-90
2024/01/18 02:22:42;;;;;;;21.97;11.87;;;-2.60;99.90;;;;;;4924394;29;20501;-91
2024/01/18 02:25:27;;;;;;;21.87;11.13;;;-2.70;99.90;;;;;;4924052;29;20102;-90
2024/01/18 02:27:56;;;;;;;22.67;11.40;;;-3.20;99.90;;;;;;4924616;29;20054;-90
2024/01/18 02:30:23;;;;;;;25.23;10.90;;;-3.00;99.90;;;;;;4925833;29;20071;-90
2024/01/18 02:32:58;;;;;;;22.17;11.47;;;-2.60;99.90;;;;;;4926644;29;20044;-91
2024/01/18 02:35:24;;;;;;;26.13;11.13;;;-3.00;99.90;;;;;;4923395;29;20063;-89
2024/01/18 02:37:53;;;;;;;23.37;10.77;;;-1.40;99.90;;;;;;4924119;29;20052;-90
2024/01/18 02:40:22;;;;;;;19.93;10.17;;;-3.00;99.90;;;;;;4924151;29;20055;-90
2024/01/18 02:42:47;;;;;;;21.67;10.23;;;-1.30;99.90;;;;;;4924526;29;20114;-90
2024/01/18 02:45:21;;;;;;;17.60;9.33;;;-3.00;99.90;;;;;;4924270;29;20500;-90
2024/01/18 02:47:49;;;;;;;21.90;9.70;;;-2.80;99.90;;;;;;4921102;29;20126;-90
2024/01/18 02:50:21;;;;;;;21.73;9.10;;;-3.20;99.90;;;;;;4902211;29;20062;-90
2024/01/18 02:52:53;;;;;;;20.00;9.23;;;-1.30;99.90;;;;;;4902396;29;20437;-90
2024/01/18 02:55:25;;;;;;;17.93;8.70;;;-1.80;99.90;;;;;;4902602;29;20048;-90
2024/01/18 02:58:02;;;;;;;16.80;9.00;;;-3.10;99.90;;;;;;4901862;29;20044;-89
2024/01/18 03:00:34;;;;;;;23.50;9.07;;;-1.70;99.90;;;;;;4899456;29;20938;-90
2024/01/18 03:03:06;;;;;;;17.90;8.50;;;-3.10;99.90;;;;;;4883523;29;20083;-90
2024/01/18 03:05:35;;;;;;;18.07;8.90;;;-2.50;99.90;;;;;;4886468;29;20048;-90
2024/01/18 03:08:07;;;;;;;17.23;7.90;;;-1.90;99.90;;;;;;4883095;29;20052;-91
2024/01/18 03:10:33;;;;;;;21.10;7.83;;;;;;;;;;4883580;29;20052;-90
2024/01/18 03:12:59;;;;;;;17.87;8.00;;;-2.90;99.90;;;;;;4883155;29;20049;-90
2024/01/18 03:15:27;;;;;;;15.70;7.47;;;-3.50;99.90;;;;;;4882550;29;20045;-90
2024/01/18 03:18:02;;;;;;;17.53;7.13;;;-2.30;99.90;;;;;;4883112;29;20136;-90
2024/01/18 03:20:30;;;;;;;15.10;6.47;;;-1.60;99.90;;;;;;4883658;29;20057;-90
2024/01/18 03:23:05;;;;;;;15.23;6.93;;;-1.40;99.90;;;;;;4881701;29;20076;-89
2024/01/18 03:25:39;;;;;;;17.07;6.70;;;-3.20;99.90;;;;;;4883704;29;20099;-90
2024/01/18 03:28:05;;;;;;;16.87;6.17;;;-2.30;99.90;;;;;;4882409;29;20048;-90
2024/01/18 03:30:37;;;;;;;16.30;6.73;;;-3.10;99.90;;;;;;4898382;29;20490;-90
2024/01/18 03:33:11;;;;;;;17.43;6.20;;;-2.90;99.90;;;;;;4895432;29;20135;-90
2024/01/18 03:35:41;;;;;;;15.37;6.47;;;-0.70;99.90;;;;;;4900979;29;20048;-90
2024/01/18 03:38:12;;;;;;;14.97;5.90;;;-2.20;99.90;;;;;;4921484;29;20051;-90
2024/01/18 03:40:38;;;;;;;13.90;6.23;;;-1.80;99.90;;;;;;4924348;23;20051;-90
2024/01/18 03:43:04;;;;;;;13.47;5.50;;;-3.00;99.90;;;;;;4919832;29;20464;-90
2024/01/18 03:45:30;;;;;;;13.27;5.70;;;-2.50;99.90;;;;;;4920187;29;20106;-90
2024/01/18 03:47:56;;;;;;;15.97;6.90;;;-3.10;99.90;;;;;;4919361;29;20060;-90
2024/01/18 03:50:22;;;;;;;13.00;5.67;;;-3.00;99.90;;;;;;4919777;29;20051;-89
2024/01/18 03:53:03;;;;;;;12.53;5.37;;;-3.10;99.90;;;;;;4920690;29;20082;-90
2024/01/18 03:55:59;;;;;;;12.10;4.80;;;-2.90;99.90;;;;;;4920363;29;20111;-90
2024/01/18 03:58:26;;;;;;;15.20;5.33;;;-1.30;99.90;;;;;;4919746;29;20055;-89
2024/01/18 04:01:04;;;;;;;11.93;4.90;;;-0.70;99.90;;;;;;4919693;29;20044;-89
2024/01/18 04:03:48;;;;;;;14.03;5.10;;;-3.10;99.90;;;;;;4919225;29;20055;-90
2024/01/18 04:06:17;;;;;;;13.40;4.82;;;-0.60;99.90;;;;;;4919523;29;20500;-90
2024/01/18 04:08:43;;;;;;;11.20;4.53;;;-2.60;99.90;;;;;;4919778;29;20404;-89
2024/01/18 04:11:20;;;;;;;11.80;4.30;;;-3.10;99.90;;;;;;4918107;29;20562;-89
2024/01/18 04:13:47;;;;;;;15.57;4.97;;;-2.50;99.90;;;;;;4920178;29;20048;-89
2024/01/18 04:16:27;;;;;;;12.13;4.77;;;-3.40;99.90;;;;;;4919283;29;20082;-90
2024/01/18 04:18:55;;;;;;;12.93;5.10;;;-2.60;99.90;;;;;;4919211;29;20057;-90
2024/01/18 04:21:33;;;;;;;15.67;4.77;;;-3.20;99.90;;;;;;4919507;29;20040;-90
2024/01/18 04:23:59;;;;;;;12.60;4.53;;;-3.10;99.90;;;;;;4919283;29;20055;-90
2024/01/18 04:26:40;;;;;;;12.03;4.83;;;-2.30;99.90;;;;;;4918902;29;20055;-90
2024/01/18 04:29:09;;;;;;;13.23;4.37;;;-2.80;99.90;;;;;;4918993;29;20415;-90
2024/01/18 04:31:50;;;;;;;13.10;4.00;;;-0.60;99.90;;;;;;4919031;29;20078;-90
2024/01/18 04:34:16;;;;;;;12.10;4.20;;;-3.40;99.90;;;;;;4919578;29;20048;-90
2024/01/18 04:36:50;;;;;;;10.83;4.17;;;-2.80;99.90;;;;;;4919842;29;20109;-90
2024/01/18 04:39:16;;;;;;;17.23;4.20;;;-3.30;99.90;;;;;;4920556;29;20200;-89
2024/01/18 04:41:48;;;;;;;11.33;3.80;;;-1.50;99.90;;;;;;4923672;29;20115;-89
2024/01/18 04:44:29;;;;;;;10.73;3.20;;;-3.00;99.90;;;;;;4920045;29;20137;-89
2024/01/18 04:46:54;;;;;;;8.13;2.70;;;-2.90;99.90;;;;;;4918567;29;20059;-90
2024/01/18 04:49:26;;;;;;;13.80;3.10;;;-1.80;99.90;;;;;;4919249;29;20046;-90
2024/01/18 04:51:59;;;;;;;8.37;2.60;;;-1.10;99.90;;;;;;4918808;29;20048;-90
2024/01/18 04:54:37;;;;;;;11.10;2.97;;;-0.10;99.90;;;;;;4919553;29;20179;-90
2024/01/18 04:57:03;;;;;;;8.80;2.40;;;-2.90;99.90;;;;;;4920226;29;20134;-90
2024/01/18 04:59:38;;;;;;;9.17;2.90;;;-2.40;99.90;;;;;;4919480;29;20044;-89
2024/01/18 05:02:13;;;;;;;9.80;2.33;;;-1.40;99.90;;;;;;4918667;29;20062;-90
2024/01/18 05:04:51;;;;;;;9.07;2.30;;;-1.80;99.90;;;;;;4927865;29;20506;-90
2024/01/18 05:07:17;;;;;;;8.30;2.10;;;-2.00;99.90;;;;;;4936825;29;20130;-90
2024/01/18 05:09:46;;;;;;;6.83;1.97;;;-2.30;99.90;;;;;;4937530;28;20129;-90
2024/01/18 05:12:27;;;;;;;8.70;2.20;;;-0.60;99.90;;;;;;4937581;29;20078;-91
2024/01/18 05:14:52;;;;;;;11.37;2.10;;;-1.80;99.90;;;;;;4937668;29;20039;-91
2024/01/18 05:17:21;;;;;;;7.37;2.10;;;-1.50;99.90;;;;;;4942719;29;20052;-91
2024/01/18 05:19:47;;;;;;;7.00;1.73;;;-2.30;99.90;;;;;;4937802;29;20471;-90
2024/01/18 05:22:22;;;;;;;5.67;1.67;;;0.80;99.90;;;;;;4937148;29;20070;-90
2024/01/18 05:24:48;;;;;;;11.17;2.67;;;-0.90;99.90;;;;;;4937717;29;20400;-91
2024/01/18 05:27:17;;;;;;;6.40;1.40;;;-2.10;99.90;;;;;;4937076;29;20047;-90
2024/01/18 05:29:43;;;;;;;9.13;1.90;;;-2.00;99.90;;;;;;4936777;29;20051;-90
2024/01/18 05:32:09;;;;;;;7.63;2.00;;;-2.00;99.90;;;;;;4937400;29;20371;-90
2024/01/18 05:34:34;;;;;;;7.10;1.70;;;-2.30;99.90;;;;;;4937376;29;20054;-90
2024/01/18 05:37:12;;;;;;;6.83;1.53;;;-2.10;99.90;;;;;;4943167;23;20062;-90
2024/01/18 05:39:56;;;;;;;9.00;1.87;;;-0.90;99.90;;;;;;4937794;29;20043;-90
2024/01/18 05:42:27;;;;;;;5.93;1.42;;;-1.70;99.90;;;;;;4937273;29;20051;-90
2024/01/18 05:44:53;;;;;;;7.40;1.70;;;-0.30;99.90;;;;;;4937394;29;20050;-90
2024/01/18 05:47:34;;;;;;;6.90;1.70;;;-2.50;99.90;;;;;;4938466;29;20054;-90
2024/01/18 05:50:15;;;;;;;6.83;1.97;;;-2.20;99.90;;;;;;4940972;29;20546;-90
2024/01/18 05:52:41;;;;;;;6.37;2.00;;;-1.10;99.90;;;;;;4937835;29;20047;-90
2024/01/18 05:55:27;;;;;;;8.57;2.20;;;-2.40;99.90;;;;;;4942977;28;20377;-91
2024/01/18 05:58:02;;;;;;;7.70;2.00;;;-2.50;99.90;;;;;;4936582;29;20050;-89
2024/01/18 06:00:33;;;;;;;7.17;2.30;;;-3.20;99.90;;;;;;4937750;29;20051;-90
2024/01/18 06:03:14;;;;;;;7.63;2.30;;;-0.70;99.90;;;;;;4937138;29;20047;-90
2024/01/18 06:05:40;;;;;;;7.67;2.43;;;-0.70;99.90;;;;;;4937780;29;20039;-90
2024/01/18 06:08:06;;;;;;;9.77;2.13;;;-2.40;99.90;;;;;;4937284;29;20113;-90
2024/01/18 06:10:33;;;;;;;11.27;2.20;;;-2.80;99.90;;;;;;4936876;29;20078;-90
2024/01/18 06:13:09;;;;;;;6.43;2.00;;;-1.60;99.90;;;;;;4936847;29;20082;-90
2024/01/18 06:15:36;;;;;;;7.13;2.07;;;-3.30;99.90;;;;;;4937336;29;20051;-90
2024/01/18 06:18:05;;;;;;;6.37;2.00;;;-3.00;99.90;;;;;;4936192;29;20483;-90
2024/01/18 06:20:36;;;;;;;8.40;2.30;;;-2.70;99.90;;;;;;4937836;29;20043;-90
2024/01/18 06:23:05;;;;;;;8.30;2.43;;;-0.70;99.90;;;;;;4939248;29;20039;-90
2024/01/18 06:25:31;;;;;;;10.23;2.50;;;-1.80;99.90;;;;;;4940254;29;20051;-90
2024/01/18 06:27:58;;;;;;;9.47;2.50;;;-2.90;99.90;;;;;;4941184;29;20079;-90
2024/01/18 06:30:24;;;;;;;7.77;2.30;;;-2.80;99.90;;;;;;4956411;29;20428;-90
2024/01/18 06:32:50;;;;;;;11.03;2.90;;;-1.00;99.90;;;;;;4940190;29;20054;-90
2024/01/18 06:35:19;;;;;;;9.67;2.60;;;-2.60;99.90;;;;;;4940427;28;20599;-90
2024/01/18 06:37:45;;;;;;;10.53;2.50;;;-1.20;99.90;;;;;;4940126;29;20054;-89
2024/01/18 06:40:11;;;;;;;9.00;2.33;;;-3.10;99.90;;;;;;4940025;29;20046;-90
2024/01/18 06:42:56;;;;;;;8.67;2.43;;;-2.50;99.90;;;;;;4940572;29;20049;-89
2024/01/18 06:45:28;;;;;;;8.73;2.47;;;-3.10;99.90;;;;;;4939888;29;20051;-90
2024/01/18 06:47:56;;;;;;;8.37;2.40;;;-2.20;99.90;;;;;;4940922;29;20058;-89
2024/01/18 06:50:22;;;;;;;10.13;2.60;;;-3.10;99.90;;;;;;4944225;29;20126;-91
2024/01/18 06:53:03;;;;;;;7.57;2.20;;;-2.20;99.90;;;;;;4940945;29;20520;-90
2024/01/18 06:55:32;;;;;;;10.60;2.63;;;-2.00;99.90;;;;;;4940258;29;20047;-90
2024/01/18 06:58:03;;;;;;;12.60;2.63;;;-2.20;99.90;;;;;;4939684;29;20047;-89
2024/01/18 07:00:38;;;;;;;8.40;2.70;;;-4.10;99.90;;;;;;4939800;29;20054;-90
2024/01/18 07:03:04;;;;;;;8.73;2.63;;;-2.20;99.90;;;;;;4941171;29;20499;-90
2024/01/18 07:05:30;;;;;;;10.33;2.77;;;-2.90;99.90;;;;;;4957425;28;20066;-90
2024/01/18 07:08:08;;;;;;;7.60;2.37;;;-2.00;99.90;;;;;;4939918;29;20055;-90
2024/01/18 07:10:48;;;;;;;11.07;2.10;;;-3.10;99.90;;;;;;4940506;29;20520;-89
2024/01/18 07:13:14;;;;;;;8.30;2.30;;;-1.80;99.90;;;;;;4939268;29;20047;-87
2024/01/18 07:15:46;;;;;;;8.63;2.30;;;-3.00;99.90;;;;;;4939471;29;20050;-85
2024/01/18 07:18:12;;;;;;;8.63;2.10;;;-2.80;99.90;;;;;;4956684;29;20556;-87
2024/01/18 07:20:38;;;;;;;7.13;2.17;;;-2.70;99.90;;;;;;4934712;29;20039;-87
2024/01/18 07:23:04;;;;;;;8.90;2.30;;;-2.70;99.90;;;;;;4939042;29;20043;-87
2024/01/18 07:25:30;;;;;;;8.37;2.23;;;-2.70;99.90;;;;;;4938908;29;20043;-88
2024/01/18 07:27:56;;;;;;;7.43;2.20;;;-2.00;99.90;;;;;;4938559;29;20085;-88
2024/01/18 07:30:22;;;;;;;9.93;2.60;;;-1.70;99.90;;;;;;4938010;29;20118;-87
2024/01/18 07:32:48;;;;;;;8.47;2.13;;;-1.60;99.90;;;;;;4938815;28;20099;-88
2024/01/18 07:35:14;;;;;;;8.93;2.20;;;-2.70;99.90;;;;;;4937829;29;20044;-87
2024/01/18 07:37:40;;;;;;;7.60;2.17;;;-2.60;99.90;;;;;;4938158;29;20500;-88
2024/01/18 07:40:06;;;;;;;6.93;1.90;;;-2.60;99.90;;;;;;4939099;29;20074;-91
2024/01/18 07:42:32;;;;;;;5.80;1.90;;;-2.60;99.90;;;;;;4930568;29;20039;-85
2024/01/18 07:44:58;;;;;;;5.67;1.83;;;-2.60;99.90;;;;;;4930150;29;20062;-85
2024/01/18 07:47:24;;;;;;;10.27;2.13;;;-2.60;99.90;;;;;;4928980;28;20047;-85
2024/01/18 07:49:50;;;;;;;7.70;2.07;;;-2.60;99.90;;;;;;4933639;29;20621;-85
2024/01/18 07:52:27;;;;;;;9.43;2.10;;;-2.70;99.90;;;;;;4929386;29;20106;-86
2024/01/18 07:54:52;;;;;;;7.43;1.90;;;-2.60;99.90;;;;;;4934440;29;20054;-86
2024/01/18 07:57:18;;;;;;;7.70;2.20;;;-2.60;99.90;;;;;;4934986;29;20055;-86
2024/01/18 07:59:44;;;;;;;8.33;1.90;;;-2.70;99.90;;;;;;4930083;29;20042;-85
2024/01/18 08:02:09;;;;;;;7.13;2.07;;;-2.70;99.90;;;;;;4929192;29;20438;-85
2024/01/18 08:04:37;;;;;;;8.60;2.47;;;-2.70;99.90;;;;;;4926767;29;20054;-85
2024/01/18 08:07:03;;;;;;;7.67;2.10;;;-2.70;99.90;;;;;;4927653;29;20071;-85
2024/01/18 08:09:29;;;;;;;8.90;2.40;;;-3.00;99.90;;;;;;4927216;29;20163;-86
2024/01/18 08:11:55;;;;;;;8.73;2.40;;;-2.80;99.90;;;;;;4933193;29;20052;-86
2024/01/18 08:14:21;;;;;;;8.27;2.20;;;-2.80;99.90;;;;;;4926820;29;20471;-85
2024/01/18 08:16:46;;;;;;;8.20;1.90;;;-2.80;99.90;;;;;;4927009;29;20051;-87
2024/01/18 08:19:12;;;;;;;8.70;2.07;;;-1.10;99.90;;;;;;4926556;29;20071;-87
2024/01/18 08:21:45;;;;;;;6.37;2.00;;;-2.80;99.90;;;;;;4928425;29;20134;-86
2024/01/18 08:24:11;;;;;;;7.32;2.05;;;-3.10;99.90;;;;;;4929984;29;20039;-88
2024/01/18 08:26:37;;;;;;;7.87;2.20;;;-2.90;99.90;;;;;;4932692;28;20142;-85
2024/01/18 08:29:02;;;;;;;10.17;2.17;;;-2.90;99.90;;;;;;4936787;29;20130;-86
2024/01/18 08:31:29;;;;;;;8.23;1.90;;;-2.70;99.90;;;;;;4932272;29;20039;-86
2024/01/18 08:33:55;;;;;;;11.53;2.27;;;-2.90;99.90;;;;;;4931416;29;20053;-84
2024/01/18 08:36:20;;;;;;;7.50;2.10;;;-2.90;99.90;;;;;;4935315;28;20043;-85
2024/01/18 08:38:46;;;;;;;7.33;2.17;;;-2.90;99.90;;;;;;4952327;28;20094;-86
2024/01/18 08:41:12;;;;;;;10.67;2.93;;;-2.90;99.90;;;;;;4934657;29;20043;-85
2024/01/18 08:43:37;;;;;;;9.50;2.53;;;-2.80;99.90;;;;;;4931529;29;20082;-85
2024/01/18 08:46:06;;;;;;;10.87;3.30;;;-2.80;99.90;;;;;;4923792;29;20070;-85
2024/01/18 08:48:35;;;;;;;10.63;2.83;;;-2.70;99.90;;;;;;4930058;29;20043;-84
2024/01/18 08:51:02;;;;;;;8.73;3.00;;;-2.60;99.90;;;;;;4934008;29;20066;-85
2024/01/18 08:53:28;;;;;;;11.83;3.73;;;-2.50;99.90;;;;;;4926273;29;20046;-85
2024/01/18 08:55:53;;;;;;;12.13;4.33;;;-2.50;99.90;;;;;;4928147;29;20139;-85
2024/01/18 08:58:19;;;;;;;9.90;3.80;;;-2.50;99.90;;;;;;4932193;29;20126;-85
2024/01/18 09:00:45;;;;;;;9.20;4.03;;;-2.50;99.90;;;;;;4926973;29;20522;-84
2024/01/18 09:03:10;;;;;;;11.27;4.27;;;-1.20;99.90;;;;;;4942777;28;20036;-84
2024/01/18 09:05:36;;;;;;;10.27;3.67;;;-2.20;99.90;;;;;;4933521;29;20051;-83
2024/01/18 09:08:02;;;;;;;12.03;3.33;;;-1.10;99.90;;;;;;4932256;29;20043;-84
2024/01/18 09:10:27;;;;;;;11.60;2.80;;;-2.10;99.90;;;;;;4933638;29;20046;-84
2024/01/18 09:12:53;;;;;;;8.30;2.70;;;-2.00;99.90;;;;;;4931392;29;20130;-83
2024/01/18 09:15:19;;;;;;;7.40;2.10;;;-1.90;99.90;;;;;;4930836;29;20047;-85
2024/01/18 09:17:44;;;;;;;12.80;2.87;;;-1.80;99.90;;;;;;4931102;29;20071;-85
2024/01/18 09:20:10;;;;;;;10.30;2.30;;;-1.70;99.90;;;;;;4925615;29;20044;-85
2024/01/18 09:22:36;;;;;;;9.83;2.30;;;-1.60;99.90;;;;;;4929174;29;20040;-85
2024/01/18 09:25:02;;;;;;;8.73;2.70;;;-0.40;99.90;;;;;;4928188;29;20043;-85
2024/01/18 09:27:28;;;;;;;8.23;2.40;;;-1.40;99.90;;;;;;4936039;29;20484;-86
2024/01/18 09:29:54;;;;;;;7.90;2.17;;;-1.30;99.90;;;;;;4954355;28;20054;-85
2024/01/18 09:32:20;;;;;;;11.40;4.23;;;0.20;99.90;;;;;;4937863;29;20070;-85
2024/01/18 09:34:45;;;;;;;14.37;5.80;;;-1.20;99.90;;;;;;4937125;29;20482;-84
2024/01/18 09:37:11;;;;;;;9.67;2.50;;;0.20;99.90;;;;;;4936514;29;20140;-84
2024/01/18 09:39:37;;;;;;;7.10;1.63;;;-1.10;99.90;;;;;;4937604;29;20078;-84
2024/01/18 09:42:10;;;;;;;9.47;2.07;;;-1.00;99.90;;;;;;4937024;29;20427;-84
2024/01/18 09:44:39;;;;;;;7.68;2.20;;;-0.90;99.90;;;;;;4937414;29;20055;-84
2024/01/18 09:47:05;;;;;;;9.97;2.53;;;0.70;99.90;;;;;;4937267;29;20110;-84
2024/01/18 09:49:33;;;;;;;10.47;3.00;;;-0.80;99.90;;;;;;4936848;29;20051;-84
2024/01/18 09:52:00;;;;;;;8.80;2.90;;;-0.70;99.90;;;;;;4936864;29;20444;-84
2024/01/18 09:54:26;;;;;;;9.83;2.40;;;0.20;99.90;;;;;;4937422;29;20086;-85
2024/01/18 09:56:59;;;;;;;9.83;2.83;;;-0.60;99.90;;;;;;4937236;29;20082;-85
2024/01/18 09:59:27;;;;;;;6.63;2.03;;;-0.60;99.90;;;;;;4940982;29;20381;-84
2024/01/18 10:01:57;;;;;;;8.87;3.07;;;-0.50;99.90;;;;;;4945291;28;20082;-84
2024/01/18 10:04:27;;;;;;;8.93;2.80;;;-0.50;99.90;;;;;;4960385;28;20039;-84
2024/01/18 10:06:53;;;;;;;8.77;2.47;;;-0.40;99.90;;;;;;4977321;28;20046;-84
2024/01/18 10:09:19;;;;;;;7.60;2.20;;;-0.40;99.90;;;;;;4959634;28;20047;-84
2024/01/18 10:11:46;;;;;;;8.90;2.80;;;-0.30;99.90;;;;;;4960122;28;20061;-83
2024/01/18 10:14:12;;;;;;;8.00;2.07;;;-0.20;99.90;;;;;;4959782;28;20051;-84
2024/01/18 10:16:39;;;;;;;8.67;2.00;;;-0.20;99.90;;;;;;4959062;28;20129;-83
2024/01/18 10:19:07;;;;;;;6.13;1.90;;;-0.20;99.90;;;;;;4959556;28;20053;-84
2024/01/18 10:21:36;;;;;;;8.67;2.00;;;0.10;99.90;;;;;;4938918;28;20039;-84
2024/01/18 10:24:06;;;;;;;7.90;1.93;;;0.00;99.90;;;;;;4930409;29;20083;-85
2024/01/18 10:26:33;;;;;;;7.20;1.87;;;0.10;99.90;;;;;;4939255;29;20502;-83
2024/01/18 10:28:58;;;;;;;7.70;2.13;;;0.10;99.90;;;;;;4954391;29;20047;-85
2024/01/18 10:31:24;;;;;;;7.47;2.23;;;0.40;99.90;;;;;;4938713;29;20376;-85
2024/01/18 10:33:51;;;;;;;6.40;1.80;;;0.70;99.90;;;;;;4940995;29;20134;-84
2024/01/18 10:36:25;;;;;;;6.40;1.77;;;0.30;99.90;;;;;;4921417;29;20397;-84
2024/01/18 10:38:51;;;;;;;5.80;1.80;;;1.20;99.90;;;;;;4920913;29;20401;-85
2024/01/18 10:41:20;;;;;;;11.67;2.80;;;0.50;99.90;;;;;;4921197;29;20058;-85
2024/01/18 10:43:48;;;;;;;6.27;1.90;;;1.90;99.90;;;;;;4921161;29;20142;-83
2024/01/18 10:46:14;;;;;;;6.43;2.10;;;0.50;99.90;;;;;;4920005;29;20095;-83
2024/01/18 10:48:45;;;;;;;9.93;2.80;;;0.70;99.90;;;;;;4921119;29;20106;-84
2024/01/18 10:51:12;;;;;;;7.33;2.20;;;1.20;99.90;;;;;;4919958;29;20483;-84
2024/01/18 10:53:38;;;;;;;9.57;2.30;;;0.80;99.90;;;;;;4921250;29;20404;-84
2024/01/18 10:56:04;;;;;;;7.27;2.20;;;0.90;99.90;;;;;;4920816;29;20054;-84
2024/01/18 10:58:31;;;;;;;8.93;2.30;;;1.00;99.90;;;;;;4920613;29;20203;-84
2024/01/18 11:00:58;;;;;;;10.53;2.50;;;1.50;99.90;;;;;;4937552;29;20051;-83
2024/01/18 11:03:24;;;;;;;8.57;2.00;;;1.20;99.90;;;;;;4936252;29;20055;-84
2024/01/18 11:05:50;;;;;;;12.20;2.10;;;2.10;99.90;;;;;;4933363;29;20043;-86
2024/01/18 11:08:23;;;;;;;7.87;2.07;;;1.40;99.90;;;;;;4937734;29;20061;-83
2024/01/18 11:10:48;;;;;;;9.67;2.00;;;1.70;99.90;;;;;;4938743;29;20136;-88
2024/01/18 11:13:15;;;;;;;7.90;1.80;;;1.60;99.90;;;;;;4938919;29;20048;-88
2024/01/18 11:15:43;;;;;;;7.37;2.10;;;1.80;99.90;;;;;;4940048;29;20086;-88
2024/01/18 11:18:10;;;;;;;6.40;1.90;;;2.50;99.90;;;;;;4939439;29;20082;-89
2024/01/18 11:20:57;;;;;;;6.97;1.70;;;2.20;99.90;;;;;;4941051;29;20078;-88
2024/01/18 11:23:28;;;;;;;7.57;1.80;;;2.30;99.90;;;;;;4943697;29;20075;-87
2024/01/18 11:25:54;;;;;;;7.57;1.93;;;2.40;99.90;;;;;;4940203;29;20055;-86
2024/01/18 11:28:24;;;;;;;11.50;1.90;;;2.50;99.90;;;;;;4939429;29;20062;-83
2024/01/18 11:30:50;;;;;;;8.83;2.00;;;3.40;99.90;;;;;;4923083;29;20051;-83
2024/01/18 11:33:15;;;;;;;7.37;2.00;;;2.50;99.90;;;;;;4940818;29;20047;-84
2024/01/18 11:35:44;;;;;;;7.57;1.57;;;2.70;99.90;;;;;;4922735;29;20062;-84
2024/01/18 11:38:19;;;;;;;6.33;1.60;;;2.80;99.90;;;;;;4939142;29;20043;-84
2024/01/18 11:40:46;;;;;;;5.43;1.60;;;3.00;99.90;;;;;;4938426;29;20051;-84
2024/01/18 11:43:12;;;;;;;5.30;1.60;;;3.20;99.90;;;;;;4938914;29;20090;-83
2024/01/18 11:45:38;;;;;;;7.10;1.50;;;3.20;99.90;;;;;;4938999;29;20075;-83
2024/01/18 11:48:04;;;;;;;7.17;1.47;;;3.20;99.90;;;;;;4938242;29;20499;-83
2024/01/18 11:50:30;;;;;;;2.67;1.30;;;2.90;99.90;;;;;;4951460;28;20046;-82
2024/01/18 11:52:56;;;;;;;4.23;1.20;;;2.80;99.90;;;;;;4957945;28;20573;-82
2024/01/18 11:55:29;;;;;;;3.43;1.30;;;2.80;99.90;;;;;;4957565;28;20062;-83
2024/01/18 11:57:56;;;;;;;4.27;1.47;;;3.70;99.90;;;;;;4958135;28;20054;-83
2024/01/18 12:00:22;;;;;;;3.47;1.20;;;2.80;99.90;;;;;;4958237;28;20078;-83
2024/01/18 12:02:48;;;;;;;5.43;1.30;;;2.80;99.90;;;;;;4957389;28;20089;-83
2024/01/18 12:05:15;;;;;;;4.47;1.17;;;3.00;99.90;;;;;;4957400;28;20384;-83
2024/01/18 12:07:43;;;;;;;5.23;1.30;;;3.00;99.90;;;;;;4958587;28;20444;-83
2024/01/18 12:10:10;;;;;;;4.20;1.00;;;3.00;99.90;;;;;;4952308;28;20047;-82
2024/01/18 12:12:39;;;;;;;3.17;1.10;;;3.20;99.90;;;;;;4929449;29;20138;-82
2024/01/18 12:15:06;;;;;;;5.00;1.03;;;3.40;99.90;;;;;;4938374;29;20066;-83
2024/01/18 12:17:32;;;;;;;2.80;0.93;;;3.60;99.90;;;;;;4937549;29;20039;-83
2024/01/18 12:19:58;;;;;;;2.43;0.90;;;3.50;99.90;;;;;;4937895;29;20047;-83
2024/01/18 12:22:26;;;;;;;3.20;0.90;;;3.70;99.90;;;;;;4937571;29;20057;-82
2024/01/18 12:24:52;;;;;;;2.90;1.00;;;3.70;99.90;;;;;;4954216;28;20050;-83
2024/01/18 12:27:18;;;;;;;2.70;0.83;;;4.30;99.90;;;;;;4942234;28;20058;-83
2024/01/18 12:29:44;;;;;;;5.13;1.40;;;3.70;99.90;;;;;;4930324;29;20842;-83
2024/01/18 12:32:10;;;;;;;7.10;1.50;;;3.40;99.90;;;;;;4938278;29;20050;-84
2024/01/18 12:34:36;;;;;;;3.00;1.20;;;3.40;99.90;;;;;;4937775;29;20047;-83
2024/01/18 12:37:03;;;;;;;4.23;1.30;;;3.30;99.90;;;;;;4936427;29;20150;-83
2024/01/18 12:39:30;;;;;;;6.53;1.27;;;3.30;99.90;;;;;;4937252;29;20035;-84
2024/01/18 12:41:57;;;;;;;4.57;1.23;;;3.40;99.90;;;;;;4937795;29;20062;-83
2024/01/18 12:44:23;;;;;;;4.10;1.40;;;3.40;99.90;;;;;;4937162;29;20050;-83
2024/01/18 12:46:54;;;;;;;3.93;1.20;;;3.50;99.90;;;;;;4930077;23;20513;-84
2024/01/18 12:49:20;;;;;;;2.60;1.00;;;3.30;99.90;;;;;;4900476;29;20461;-83
2024/01/18 12:51:56;;;;;;;2.60;1.00;;;3.10;99.90;;;;;;4899359;29;20075;-83
2024/01/18 12:54:28;;;;;;;5.40;1.27;;;3.20;99.90;;;;;;4900035;29;20567;-83
2024/01/18 12:56:58;;;;;;;3.23;1.30;;;4.40;99.90;;;;;;4900071;29;20508;-83
2024/01/18 12:59:30;;;;;;;4.87;1.37;;;3.20;99.90;;;;;;4899247;29;20104;-83
2024/01/18 13:01:56;;;;;;;4.87;1.30;;;3.30;99.90;;;;;;4899937;29;20059;-83
2024/01/18 13:04:27;;;;;;;4.67;1.10;;;3.30;99.90;;;;;;4900030;29;20052;-83